Glenbrook, NV

10:48 AM PST on February 07, 2016 (GMT -0800)
Bijou School Area | | Change Station
CLOSE
Current Station
Personal Weather Station
Location: South Lake Tahoe, CA
Elevation: 6273 ft
Nearby Weather Stations

Elev 6273 ft 38.94 °N, 119.96 °W | Updated 11 minutes ago

Clear
Clear
38.3 °F
Feels Like 38 °F
N
2.2
Wind Variable Wind from NE

Today
High -- | Low -- °F
--% Chance of Precip.
Yesterday
High -- | Low -- °F
Precip. -- in
Pressure 30.55 in
Visibility 10.0 miles
Clouds Clear
Windchill 38 °F
Dew Point 27 °F
Humidity 63%
Rainfall 0.00 in
Snow Depth Not available.
7:00 AM 5:27 PM
Waning Crescent, 1% visible
METAR KTVL 071753Z AUTO 19005KT 10SM CLR 03/M03 A3052 RMK AO2 SLP343 T00281033 10028 21067 51006
Pressure 30.55 in
Visibility 10.0 miles
Clouds Clear
Windchill 38 °F
Dew Point 27 °F
Humidity 63%
Rainfall 0.00 in
Snow Depth Not available.
7:00 AM 5:27 PM
Waning Crescent, 1% visible
METAR KTVL 071753Z AUTO 19005KT 10SM CLR 03/M03 A3052 RMK AO2 SLP343 T00281033 10028 21067 51006

10-Day Weather Forecast

Almanac

Astronomy

Feb. 07, 2016 Rise Set
Actual Time
Civil Twilight
Nautical Twilight
Astronomical Twilight
Moon
Length of Visible Light
Length of Day
Tomorrow will be .
, % of the Moon is Illuminated

Today's Extremes

State Highs State Lows

Community

WunderPhotos

Upload Photos

1,891,280 photos uploaded!

WunderBlog® & News

Nearby

Air Quality

  Air Quality AQ Index Pollutant
Not available.

Snow Depth

Station Depth Elevation

Earthquake Activity

City Distance Mag. Time & Date
Minimum magnitude displayed is 2.5.

Coastal Water Temperatures

Place Temperature

Stations

Nearby Weather Stations

Station Location Temp. Windchill Dew Point Humidity Wind Precip. Elev Updated Type
                   

Watches & Warnings

There are currently no watches in effect.